Time;durP1;ratioP1;P1;durP2;ratioP2;P2;SDS_P1;SDS_P2;PMS_P1;PMS_P2;Temp;Humidity;BMP_temperature;BMP_pressure;BME280_temperature;BME280_humidity;BME280_pressure;Samples;Min_cycle;Max_cycle;Signal;HPM_P1;HPM_P2
2023/03/07 00:02:18;;;;;;;13.40;6.35;;;2.50;99.90;;;;;;7405117;19;19946;-76
2023/03/07 00:04:47;;;;;;;10.48;6.00;;;3.00;99.90;;;;;;7405042;19;19915;-75
2023/03/07 00:07:21;;;;;;;11.93;6.00;;;2.00;99.90;;;;;;7405082;19;20256;-76
2023/03/07 00:09:52;;;;;;;11.55;5.82;;;2.00;99.90;;;;;;7409422;19;19927;-76
2023/03/07 00:12:21;;;;;;;13.38;6.70;;;2.10;99.90;;;;;;7404987;19;19918;-76
2023/03/07 00:14:50;;;;;;;10.13;5.18;;;1.40;99.90;;;;;;7405709;19;19918;-76
2023/03/07 00:17:19;;;;;;;10.07;5.70;;;3.10;99.90;;;;;;7405971;19;19915;-76
2023/03/07 00:19:48;;;;;;;10.30;5.07;;;1.70;99.90;;;;;;7404881;19;19910;-76
2023/03/07 00:22:17;;;;;;;8.55;4.97;;;2.50;99.90;;;;;;7405006;19;19915;-76
2023/03/07 00:24:50;;;;;;;9.95;5.40;;;1.70;99.90;;;;;;7404787;19;19919;-76
2023/03/07 00:27:19;;;;;;;11.52;5.22;;;1.80;99.90;;;;;;7403413;19;19915;-77
2023/03/07 00:29:50;;;;;;;11.43;5.15;;;1.80;99.90;;;;;;7405575;19;19921;-77
2023/03/07 00:32:22;;;;;;;12.18;4.75;;;;;;;;;;7407481;19;19930;-77
2023/03/07 00:34:53;;;;;;;10.65;4.72;;;1.70;99.90;;;;;;7405690;19;19921;-76
2023/03/07 00:37:22;;;;;;;10.20;5.07;;;2.30;99.90;;;;;;7405891;19;20380;-76
2023/03/07 00:39:54;;;;;;;9.05;4.57;;;2.20;99.90;;;;;;7405203;19;19919;-76
2023/03/07 00:42:23;;;;;;;7.65;3.97;;;1.80;99.90;;;;;;7404961;19;19929;-76
2023/03/07 00:44:54;;;;;;;8.75;4.15;;;2.40;99.90;;;;;;7404617;19;20375;-76
2023/03/07 00:47:24;;;;;;;7.78;4.40;;;2.70;99.90;;;;;;7406393;19;19974;-76
2023/03/07 00:49:53;;;;;;;7.13;3.42;;;1.90;99.90;;;;;;7404065;19;19939;-76
2023/03/07 00:52:22;;;;;;;6.20;3.42;;;1.60;99.90;;;;;;7408530;19;19911;-76
2023/03/07 00:54:53;;;;;;;4.93;3.45;;;3.30;99.90;;;;;;7401865;19;19925;-76
2023/03/07 00:57:22;;;;;;;6.43;3.13;;;2.70;99.90;;;;;;7405469;19;20307;-76
2023/03/07 00:59:51;;;;;;;6.97;2.97;;;3.30;99.90;;;;;;7404240;19;19954;-76
2023/03/07 01:02:29;;;;;;;4.38;2.35;;;2.60;99.90;;;;;;7403896;19;19922;-76
2023/03/07 01:04:58;;;;;;;4.03;2.30;;;2.20;99.90;;;;;;7403580;19;19978;-75
2023/03/07 01:07:26;;;;;;;4.53;1.80;;;2.60;99.90;;;;;;7404468;19;19918;-76
2023/03/07 01:09:58;;;;;;;4.40;1.90;;;2.60;99.90;;;;;;7406610;19;19919;-76
2023/03/07 01:12:27;;;;;;;2.78;1.42;;;3.20;99.90;;;;;;7402065;19;20276;-75
2023/03/07 01:14:56;;;;;;;4.05;1.70;;;2.40;99.90;;;;;;7401519;19;20349;-76
2023/03/07 01:17:25;;;;;;;2.22;1.35;;;2.90;99.90;;;;;;7404778;19;19919;-76
2023/03/07 01:19:54;;;;;;;3.28;1.30;;;;;;;;;;7403513;19;19922;-76
2023/03/07 01:22:23;;;;;;;3.35;1.20;;;1.80;99.90;;;;;;7404520;19;19930;-76
2023/03/07 01:25:00;;;;;;;2.90;1.55;;;2.00;99.90;;;;;;7403476;19;19978;-76
2023/03/07 01:27:31;;;;;;;7.63;2.20;;;3.00;99.90;;;;;;7404246;19;19914;-76
2023/03/07 01:30:01;;;;;;;3.63;1.63;;;2.90;99.90;;;;;;7403435;19;19919;-76
2023/03/07 01:32:45;;;;;;;4.45;1.20;;;3.10;99.90;;;;;;7402756;19;19923;-76
2023/03/07 01:35:14;;;;;;;5.47;1.73;;;2.00;99.90;;;;;;7402833;19;20245;-76
2023/03/07 01:37:43;;;;;;;2.55;0.95;;;2.30;99.90;;;;;;7404921;19;19922;-75
2023/03/07 01:40:15;;;;;;;1.80;1.08;;;1.90;99.90;;;;;;7403153;19;19924;-76
2023/03/07 01:42:45;;;;;;;2.90;1.23;;;2.70;99.90;;;;;;7402827;19;20284;-76
2023/03/07 01:45:43;;;;;;;3.08;1.45;;;2.80;99.90;;;;;;7402107;19;19990;-76
2023/03/07 01:48:13;;;;;;;3.03;0.80;;;2.80;99.90;;;;;;7403271;19;20048;-76
2023/03/07 01:50:43;;;;;;;4.22;1.00;;;2.70;99.90;;;;;;7404766;19;19922;-76
2023/03/07 01:53:14;;;;;;;3.35;0.70;;;3.00;99.90;;;;;;7406746;19;20149;-76
2023/03/07 01:55:46;;;;;;;2.63;0.55;;;3.40;99.90;;;;;;7405235;19;19934;-76
2023/03/07 01:58:16;;;;;;;2.08;1.00;;;2.00;99.90;;;;;;7405977;19;19925;-76
2023/03/07 02:00:47;;;;;;;4.03;0.98;;;2.30;99.90;;;;;;7402648;19;19927;-76
2023/03/07 02:03:23;;;;;;;2.97;1.00;;;1.80;99.90;;;;;;7403704;19;19930;-76
2023/03/07 02:05:57;;;;;;;5.05;0.85;;;3.30;99.90;;;;;;7402489;19;19931;-76
2023/03/07 02:08:29;;;;;;;3.70;0.82;;;2.10;99.90;;;;;;7401316;19;20389;-76
2023/03/07 02:11:00;;;;;;;5.18;0.80;;;2.90;99.90;;;;;;7405322;19;19922;-77
2023/03/07 02:13:35;;;;;;;7.57;0.77;;;;;;;;;;7401343;19;20260;-76
2023/03/07 02:16:04;;;;;;;3.70;0.77;;;2.50;99.90;;;;;;7401939;19;19952;-76
2023/03/07 02:18:37;;;;;;;5.43;0.65;;;2.20;99.90;;;;;;7400933;19;19931;-76
2023/03/07 02:21:13;;;;;;;11.20;1.02;;;2.90;99.90;;;;;;7401806;19;19932;-76
2023/03/07 02:23:49;;;;;;;3.38;0.60;;;2.30;99.90;;;;;;7400422;19;20287;-76
2023/03/07 02:26:28;;;;;;;2.13;0.52;;;3.20;99.90;;;;;;7399269;19;19944;-76
2023/03/07 02:29:01;;;;;;;2.47;0.82;;;2.60;99.90;;;;;;7400990;19;19933;-76
2023/03/07 02:31:30;;;;;;;2.22;0.60;;;3.00;99.90;;;;;;7401763;19;19918;-77
2023/03/07 02:33:59;;;;;;;4.32;0.70;;;2.40;99.90;;;;;;7400799;19;19914;-76
2023/03/07 02:36:32;;;;;;;4.45;0.70;;;2.50;99.90;;;;;;7401608;19;19918;-76
2023/03/07 02:39:05;;;;;;;5.68;0.90;;;2.70;99.90;;;;;;7401724;19;20597;-76
2023/03/07 02:41:36;;;;;;;6.03;0.50;;;2.10;99.90;;;;;;7401159;19;19914;-77
2023/03/07 02:44:07;;;;;;;5.88;0.63;;;1.80;99.90;;;;;;7401881;19;20367;-76
2023/03/07 02:46:36;;;;;;;5.95;0.80;;;2.00;99.90;;;;;;7401212;19;19946;-76
2023/03/07 02:49:06;;;;;;;4.68;0.80;;;2.90;99.90;;;;;;7403782;19;19929;-76
2023/03/07 02:51:35;;;;;;;7.50;0.80;;;3.10;99.90;;;;;;7399589;19;19918;-76
2023/03/07 02:54:04;;;;;;;5.68;0.73;;;2.70;99.90;;;;;;7404143;19;19954;-76
2023/03/07 02:56:33;;;;;;;7.50;0.95;;;1.90;99.90;;;;;;7401149;19;20260;-77
2023/03/07 02:59:02;;;;;;;6.97;0.60;;;2.50;99.90;;;;;;7401368;19;19922;-76
2023/03/07 03:01:34;;;;;;;9.88;2.20;;;1.60;99.90;;;;;;7403985;19;20337;-76
2023/03/07 03:04:03;;;;;;;4.95;0.60;;;2.90;99.90;;;;;;7404718;19;19939;-76
2023/03/07 03:06:37;;;;;;;6.15;0.80;;;2.70;99.90;;;;;;7402873;19;20020;-75
2023/03/07 03:09:06;;;;;;;5.07;0.70;;;2.60;99.90;;;;;;7400699;19;19915;-75
2023/03/07 03:11:35;;;;;;;1.95;0.60;;;2.80;99.90;;;;;;7402485;19;20267;-76
2023/03/07 03:14:04;;;;;;;10.45;1.20;;;;;;;;;;7400218;19;19923;-76
2023/03/07 03:16:36;;;;;;;7.70;1.10;;;2.90;99.90;;;;;;7400568;19;19965;-76
2023/03/07 03:19:05;;;;;;;2.75;0.60;;;3.10;99.90;;;;;;7398439;19;19922;-76
2023/03/07 03:21:34;;;;;;;3.47;0.93;;;2.10;99.90;;;;;;7400191;19;19922;-76
2023/03/07 03:24:06;;;;;;;8.63;1.55;;;1.70;99.90;;;;;;7403196;19;19926;-75
2023/03/07 03:26:36;;;;;;;2.85;0.77;;;2.10;99.90;;;;;;7399931;19;19970;-76
2023/03/07 03:29:06;;;;;;;2.38;0.57;;;2.40;99.90;;;;;;7399047;19;19922;-76
2023/03/07 03:31:38;;;;;;;6.95;0.77;;;3.10;99.90;;;;;;7399821;19;20237;-76
2023/03/07 03:34:08;;;;;;;2.83;0.50;;;3.00;99.90;;;;;;7399044;19;19950;-75
2023/03/07 03:36:44;;;;;;;2.75;1.40;;;2.70;99.90;;;;;;7403471;19;19911;-76
2023/03/07 03:39:14;;;;;;;6.32;0.60;;;1.90;99.90;;;;;;7406792;19;20260;-76
2023/03/07 03:41:44;;;;;;;2.58;0.55;;;2.00;99.90;;;;;;7405737;19;19914;-76
2023/03/07 03:44:13;;;;;;;5.03;0.80;;;2.10;99.90;;;;;;7405198;19;19914;-76
2023/03/07 03:46:45;;;;;;;6.15;0.70;;;2.10;99.90;;;;;;7407158;19;19921;-77
2023/03/07 03:49:15;;;;;;;5.80;1.10;;;;;;;;;;7406110;19;20002;-76
2023/03/07 03:51:44;;;;;;;10.48;1.00;;;1.30;99.90;;;;;;7404320;19;19914;-76
2023/03/07 03:54:13;;;;;;;4.65;0.70;;;2.10;99.90;;;;;;7405337;19;19918;-76
2023/03/07 03:56:42;;;;;;;5.07;0.80;;;2.80;99.90;;;;;;7406249;19;19966;-76
2023/03/07 03:59:11;;;;;;;9.15;1.52;;;2.80;99.90;;;;;;7406323;19;20317;-76
2023/03/07 04:01:43;;;;;;;3.33;0.43;;;2.50;99.90;;;;;;7403395;19;20615;-76
2023/03/07 04:04:13;;;;;;;6.82;0.95;;;1.90;99.90;;;;;;7406009;19;19918;-76
2023/03/07 04:06:43;;;;;;;1.08;0.43;;;2.20;99.90;;;;;;7405210;19;19915;-76
2023/03/07 04:09:12;;;;;;;3.75;0.98;;;1.50;99.90;;;;;;7404579;19;19923;-76
2023/03/07 04:11:41;;;;;;;0.80;0.50;;;2.50;99.90;;;;;;7405399;19;19926;-76
2023/03/07 04:14:10;;;;;;;5.18;0.70;;;2.00;99.90;;;;;;7404179;19;19945;-77
2023/03/07 04:16:39;;;;;;;2.28;0.85;;;2.50;99.90;;;;;;7405224;19;19929;-76
2023/03/07 04:19:12;;;;;;;4.85;0.70;;;1.90;99.90;;;;;;7402670;19;19923;-77
2023/03/07 04:21:41;;;;;;;8.10;1.05;;;1.20;99.90;;;;;;7405324;19;19954;-77
2023/03/07 04:24:11;;;;;;;8.73;0.77;;;1.70;99.90;;;;;;7404123;19;19994;-76
2023/03/07 04:26:40;;;;;;;5.15;1.13;;;2.40;99.90;;;;;;7404815;19;19915;-76
2023/03/07 04:29:09;;;;;;;5.93;0.70;;;1.70;99.90;;;;;;7405245;19;19954;-76
2023/03/07 04:31:38;;;;;;;6.45;1.15;;;1.60;99.90;;;;;;7405814;19;19929;-77
2023/03/07 04:34:07;;;;;;;3.20;0.70;;;1.20;99.90;;;;;;7409094;19;20022;-76
2023/03/07 04:36:41;;;;;;;2.50;0.55;;;2.60;99.90;;;;;;7405151;19;19954;-76
2023/03/07 04:39:11;;;;;;;12.00;0.65;;;1.50;99.90;;;;;;7404634;19;19938;-76
2023/03/07 04:41:40;;;;;;;9.07;1.45;;;2.90;99.90;;;;;;7404304;19;19914;-76
2023/03/07 04:44:09;;;;;;;3.47;0.60;;;2.90;99.90;;;;;;7403704;19;19925;-76
2023/03/07 04:46:38;;;;;;;6.40;1.60;;;2.40;99.90;;;;;;7406368;19;19978;-76
2023/03/07 04:49:08;;;;;;;4.85;0.57;;;;;;;;;;7402724;19;19950;-76
2023/03/07 04:51:38;;;;;;;3.38;0.57;;;2.50;99.90;;;;;;7403523;19;19930;-77
2023/03/07 04:54:09;;;;;;;3.10;0.80;;;3.00;99.90;;;;;;7404113;19;19914;-76
2023/03/07 04:56:38;;;;;;;2.97;0.85;;;2.60;99.90;;;;;;7404197;19;20380;-76
2023/03/07 04:59:07;;;;;;;4.07;0.80;;;1.70;99.90;;;;;;7405255;19;19953;-77
2023/03/07 05:01:36;;;;;;;8.40;0.90;;;1.00;99.90;;;;;;7404400;19;19911;-77
2023/03/07 05:04:05;;;;;;;7.65;0.60;;;2.50;99.90;;;;;;7404004;19;19922;-76
2023/03/07 05:06:34;;;;;;;6.43;1.17;;;1.30;99.90;;;;;;7404048;19;20522;-77
2023/03/07 05:09:03;;;;;;;4.72;0.60;;;1.60;99.90;;;;;;7404267;19;19930;-77
2023/03/07 05:11:35;;;;;;;4.45;0.93;;;2.70;99.90;;;;;;7407462;19;20289;-76
2023/03/07 05:14:04;;;;;;;4.07;0.60;;;;;;;;;;7406495;19;19922;-76
2023/03/07 05:16:33;;;;;;;5.32;0.80;;;1.70;99.90;;;;;;7406982;19;19918;-76
2023/03/07 05:19:02;;;;;;;3.78;0.45;;;1.40;99.90;;;;;;7402717;19;20278;-76
2023/03/07 05:21:31;;;;;;;8.23;0.93;;;2.10;99.90;;;;;;7403797;19;20265;-76
2023/03/07 05:24:00;;;;;;;9.68;1.60;;;2.10;99.90;;;;;;7404224;19;19926;-76
2023/03/07 05:26:28;;;;;;;6.25;1.13;;;1.20;99.90;;;;;;7406288;19;19914;-77
2023/03/07 05:29:05;;;;;;;3.53;0.50;;;1.40;99.90;;;;;;7408093;19;19981;-76
2023/03/07 05:31:35;;;;;;;7.07;0.70;;;1.50;99.90;;;;;;7404292;19;19918;-76
2023/03/07 05:34:04;;;;;;;2.10;0.75;;;1.30;99.90;;;;;;7403598;19;19922;-76
2023/03/07 05:36:33;;;;;;;2.45;0.47;;;2.00;99.90;;;;;;7402950;19;20241;-77
2023/03/07 05:39:02;;;;;;;4.40;0.80;;;2.20;99.90;;;;;;7403061;19;20273;-76
2023/03/07 05:41:31;;;;;;;6.78;1.60;;;1.20;99.90;;;;;;7402917;19;19926;-76
2023/03/07 05:44:00;;;;;;;5.18;1.00;;;1.60;99.90;;;;;;7405943;19;19975;-77
2023/03/07 05:46:32;;;;;;;2.60;0.75;;;1.90;99.90;;;;;;7406201;19;20375;-76
2023/03/07 05:49:00;;;;;;;5.15;1.13;;;1.40;99.90;;;;;;7402768;19;20019;-77
2023/03/07 05:51:29;;;;;;;5.63;0.77;;;2.00;99.90;;;;;;7404890;19;19923;-76
2023/03/07 05:53:59;;;;;;;1.88;0.90;;;1.90;99.90;;;;;;7403808;19;19926;-77
2023/03/07 05:56:28;;;;;;;3.45;0.50;;;2.90;99.90;;;;;;7402159;19;19919;-76
2023/03/07 05:58:57;;;;;;;3.90;0.77;;;2.20;99.90;;;;;;7402665;19;19942;-76
2023/03/07 06:01:27;;;;;;;5.78;0.80;;;1.30;99.90;;;;;;7403167;19;19919;-76
2023/03/07 06:03:58;;;;;;;2.80;0.60;;;1.50;99.90;;;;;;7403063;19;19939;-76
2023/03/07 06:06:27;;;;;;;7.70;0.90;;;1.20;99.90;;;;;;7402780;19;20253;-76
2023/03/07 06:08:56;;;;;;;5.20;0.82;;;2.20;99.90;;;;;;7402770;19;19934;-76
2023/03/07 06:11:25;;;;;;;3.60;0.57;;;2.70;99.90;;;;;;7405529;19;19923;-76
2023/03/07 06:13:54;;;;;;;5.22;0.77;;;2.10;99.90;;;;;;7401671;19;19923;-76
2023/03/07 06:16:23;;;;;;;3.28;0.80;;;;;;;;;;7402675;19;19966;-76
2023/03/07 06:18:52;;;;;;;4.22;0.77;;;1.30;99.90;;;;;;7400623;19;19926;-76
2023/03/07 06:21:24;;;;;;;4.53;0.82;;;1.20;99.90;;;;;;7402264;19;19942;-76
2023/03/07 06:23:53;;;;;;;3.03;0.40;;;1.60;99.90;;;;;;7401809;19;19942;-76
2023/03/07 06:26:28;;;;;;;0.95;0.40;;;1.60;99.90;;;;;;7402149;19;19998;-76
2023/03/07 06:28:57;;;;;;;1.80;0.30;;;2.10;99.90;;;;;;7404363;19;20491;-76
2023/03/07 06:31:27;;;;;;;1.98;0.40;;;2.30;99.90;;;;;;7403638;19;19918;-77
2023/03/07 06:33:56;;;;;;;1.73;0.50;;;1.50;99.90;;;;;;7405459;19;19947;-76
2023/03/07 06:36:27;;;;;;;3.30;0.43;;;2.00;99.90;;;;;;7400357;19;19927;-76
2023/03/07 06:38:56;;;;;;;2.78;0.40;;;;;;;;;;7404199;19;19925;-77
2023/03/07 06:41:25;;;;;;;1.10;0.20;;;2.10;99.90;;;;;;7401471;19;19918;-76
2023/03/07 06:43:55;;;;;;;0.55;0.10;;;2.50;99.90;;;;;;7404458;19;20245;-76
2023/03/07 06:46:24;;;;;;;2.95;0.17;;;1.30;99.90;;;;;;7401346;19;19918;-76
2023/03/07 06:48:54;;;;;;;1.08;0.28;;;2.30;99.90;;;;;;7404044;19;19944;-76
2023/03/07 06:51:23;;;;;;;0.40;0.20;;;0.90;99.90;;;;;;7403232;19;19998;-74
2023/03/07 06:53:54;;;;;;;4.25;0.40;;;1.90;99.90;;;;;;7400586;19;19918;-73
2023/03/07 06:56:30;;;;;;;2.47;0.22;;;2.30;99.90;;;;;;7401989;19;19918;-73
2023/03/07 06:58:59;;;;;;;1.50;0.25;;;2.20;99.90;;;;;;7401300;19;19930;-75
2023/03/07 07:01:30;;;;;;;2.45;0.22;;;1.20;99.90;;;;;;7403965;19;19939;-74
2023/03/07 07:03:59;;;;;;;1.40;0.20;;;1.30;99.90;;;;;;7403192;19;19922;-74
2023/03/07 07:06:30;;;;;;;2.35;0.60;;;1.30;99.90;;;;;;7404032;19;19917;-73
2023/03/07 07:09:03;;;;;;;0.38;0.10;;;1.90;99.90;;;;;;7403089;19;19919;-74
2023/03/07 07:11:33;;;;;;;2.15;0.25;;;0.70;99.90;;;;;;7402220;19;19918;-74
2023/03/07 07:14:02;;;;;;;2.40;0.52;;;0.80;99.90;;;;;;7400246;19;19923;-72
2023/03/07 07:16:40;;;;;;;4.53;0.60;;;1.30;99.90;;;;;;7398505;19;20392;-73
2023/03/07 07:19:10;;;;;;;5.43;0.65;;;1.90;99.90;;;;;;7402543;19;19925;-76
2023/03/07 07:21:39;;;;;;;4.05;0.70;;;1.00;99.90;;;;;;7402330;19;19925;-76
2023/03/07 07:24:13;;;;;;;4.05;0.50;;;2.20;99.90;;;;;;7403818;19;19922;-77
2023/03/07 07:26:42;;;;;;;5.95;0.90;;;2.60;99.90;;;;;;7400706;19;19921;-76
2023/03/07 07:29:11;;;;;;;2.13;0.40;;;;;;;;;;7403281;19;19935;-76
2023/03/07 07:31:40;;;;;;;1.65;0.47;;;1.20;99.90;;;;;;7403501;19;19930;-76
2023/03/07 07:34:09;;;;;;;4.18;0.63;;;1.70;99.90;;;;;;7400925;19;20383;-76
2023/03/07 07:36:38;;;;;;;4.05;0.70;;;1.50;99.90;;;;;;7399873;19;19918;-76
2023/03/07 07:39:10;;;;;;;4.57;1.58;;;1.40;99.90;;;;;;7403550;19;19922;-75
2023/03/07 07:41:40;;;;;;;3.55;0.63;;;1.50;99.90;;;;;;7400564;19;19925;-76
2023/03/07 07:44:09;;;;;;;4.53;0.60;;;2.10;99.90;;;;;;7398980;19;19954;-76
2023/03/07 07:46:38;;;;;;;1.90;1.05;;;2.80;99.90;;;;;;7400651;19;20273;-75
2023/03/07 07:49:07;;;;;;;5.55;0.50;;;2.60;99.90;;;;;;7399331;19;20380;-76
2023/03/07 07:51:40;;;;;;;3.55;0.45;;;2.60;99.90;;;;;;7399577;19;19932;-76
2023/03/07 07:54:12;;;;;;;3.15;0.55;;;2.20;99.90;;;;;;7399734;19;19919;-76
2023/03/07 07:56:42;;;;;;;6.03;1.35;;;3.00;99.90;;;;;;7397053;19;19915;-76
2023/03/07 07:59:11;;;;;;;2.50;0.70;;;1.40;99.90;;;;;;7398620;19;19974;-76
2023/03/07 08:01:45;;;;;;;2.83;0.65;;;2.20;99.90;;;;;;7398615;19;20369;-76
2023/03/07 08:04:17;;;;;;;1.40;0.52;;;1.60;99.90;;;;;;7399917;19;20490;-76
2023/03/07 08:06:46;;;;;;;2.63;0.45;;;2.80;99.90;;;;;;7402282;19;19939;-76
2023/03/07 08:09:18;;;;;;;2.67;1.13;;;3.20;99.90;;;;;;7403040;19;20010;-76
2023/03/07 08:11:50;;;;;;;2.88;0.82;;;1.70;99.90;;;;;;7396680;19;19926;-76
2023/03/07 08:14:19;;;;;;;6.47;0.50;;;1.70;99.90;;;;;;7399063;19;20367;-76
2023/03/07 08:16:48;;;;;;;1.55;0.25;;;2.50;99.90;;;;;;7396328;19;20332;-76
2023/03/07 08:19:17;;;;;;;1.40;0.30;;;2.90;99.90;;;;;;7399255;19;20653;-76
2023/03/07 08:21:46;;;;;;;2.00;0.50;;;1.80;99.90;;;;;;7401899;19;19914;-76
2023/03/07 08:24:17;;;;;;;3.65;0.35;;;2.10;99.90;;;;;;7406233;19;19978;-76
2023/03/07 08:26:46;;;;;;;2.67;0.40;;;1.80;99.90;;;;;;7404413;19;19926;-75
2023/03/07 08:29:15;;;;;;;1.75;0.40;;;3.00;99.90;;;;;;7407536;19;19974;-76
2023/03/07 08:31:47;;;;;;;4.72;0.60;;;2.10;99.90;;;;;;7404559;19;19914;-75
2023/03/07 08:34:17;;;;;;;1.63;0.50;;;;;;;;;;7404660;19;20332;-76
2023/03/07 08:36:46;;;;;;;2.58;0.50;;;1.90;99.90;;;;;;7402332;19;19918;-76
2023/03/07 08:39:18;;;;;;;6.45;0.77;;;3.70;99.90;;;;;;7407141;19;19919;-75
2023/03/07 08:41:47;;;;;;;9.15;0.88;;;2.10;99.90;;;;;;7404115;19;19918;-76
2023/03/07 08:44:16;;;;;;;1.60;0.50;;;2.00;99.90;;;;;;7406649;19;19918;-75
2023/03/07 08:46:45;;;;;;;1.83;0.55;;;;;;;;;;7406647;19;19915;-76
2023/03/07 08:49:14;;;;;;;3.72;0.60;;;2.10;99.90;;;;;;7404374;19;19926;-76
2023/03/07 08:51:43;;;;;;;2.95;0.60;;;3.10;99.90;;;;;;7406706;19;20469;-76
2023/03/07 08:54:12;;;;;;;2.13;0.55;;;2.40;99.90;;;;;;7405981;19;20395;-76
2023/03/07 08:56:45;;;;;;;9.45;1.23;;;1.90;99.90;;;;;;7404664;19;19927;-75
2023/03/07 08:59:14;;;;;;;2.92;0.55;;;3.10;99.90;;;;;;7401773;19;19915;-76
2023/03/07 09:01:45;;;;;;;5.70;0.52;;;2.10;99.90;;;;;;7404476;19;19919;-76
2023/03/07 09:04:16;;;;;;;5.30;0.60;;;1.80;99.90;;;;;;7404614;19;20354;-76
2023/03/07 09:06:45;;;;;;;2.08;0.40;;;1.10;99.90;;;;;;7403532;19;19919;-76
2023/03/07 09:09:14;;;;;;;3.13;0.47;;;1.00;99.90;;;;;;7407496;19;20264;-76
2023/03/07 09:11:45;;;;;;;4.53;0.75;;;1.90;99.90;;;;;;7406354;19;20291;-75
2023/03/07 09:14:15;;;;;;;1.85;0.60;;;;;;;;;;7405264;19;19919;-76
2023/03/07 09:16:44;;;;;;;4.75;0.70;;;0.50;99.90;;;;;;7400466;19;20275;-76
2023/03/07 09:19:13;;;;;;;2.33;0.50;;;0.60;99.90;;;;;;7400928;19;19929;-76
2023/03/07 09:21:42;;;;;;;2.65;1.05;;;0.90;99.90;;;;;;7403471;19;19958;-77
2023/03/07 09:24:11;;;;;;;0.75;0.40;;;0.60;99.90;;;;;;7403231;19;20003;-76
2023/03/07 09:26:40;;;;;;;2.65;0.98;;;1.70;99.90;;;;;;7403431;19;19918;-76
2023/03/07 09:29:11;;;;;;;2.55;0.40;;;1.40;99.90;;;;;;7404510;19;19923;-75
2023/03/07 09:31:40;;;;;;;2.67;0.40;;;2.30;99.90;;;;;;7404022;19;20275;-76
2023/03/07 09:34:09;;;;;;;4.60;0.45;;;2.40;99.90;;;;;;7404418;19;19937;-76
2023/03/07 09:36:38;;;;;;;0.70;0.25;;;2.30;99.90;;;;;;7402913;19;19929;-75
2023/03/07 09:39:13;;;;;;;4.22;0.60;;;;;;;;;;7405170;19;19918;-75
2023/03/07 09:42:00;;;;;;;4.20;0.40;;;1.30;99.90;;;;;;7404521;19;20002;-75
2023/03/07 09:44:43;;;;;;;4.45;0.70;;;2.00;99.90;;;;;;7402710;19;20237;-75
2023/03/07 09:47:30;;;;;;;2.33;0.40;;;2.10;99.90;;;;;;7404312;19;19923;-75
2023/03/07 09:50:02;;;;;;;2.75;0.57;;;1.40;99.90;;;;;;7402834;19;19935;-75
2023/03/07 09:52:41;;;;;;;3.83;0.90;;;3.10;99.90;;;;;;7406559;19;19922;-76
2023/03/07 09:55:16;;;;;;;5.25;1.45;;;1.40;99.90;;;;;;7403179;19;19918;-77
2023/03/07 09:57:52;;;;;;;5.18;0.60;;;2.30;99.90;;;;;;7403699;19;19946;-75
2023/03/07 10:00:40;;;;;;;5.20;0.68;;;2.20;99.90;;;;;;7403273;19;20290;-75
2023/03/07 10:03:17;;;;;;;1.75;0.30;;;1.80;99.90;;;;;;7402245;19;19922;-76
2023/03/07 10:05:49;;;;;;;;;;;2.60;99.90;;;;;;7407970;19;19918;-76
2023/03/07 10:08:20;;;;;;;4.30;0.50;;;1.70;99.90;;;;;;7401077;19;19918;-76
2023/03/07 10:10:57;;;;;;;1.52;0.30;;;2.80;99.90;;;;;;7406542;19;20329;-76
2023/03/07 10:13:44;;;;;;;3.35;0.40;;;2.00;99.90;;;;;;7401655;19;19942;-75
2023/03/07 10:16:22;;;;;;;3.63;0.57;;;1.90;99.90;;;;;;7405302;19;19930;-76
2023/03/07 10:18:58;;;;;;;;;;;2.60;99.90;;;;;;7406979;19;19914;-76
2023/03/07 10:21:34;;;;;;;1.60;0.30;;;2.40;99.90;;;;;;7402116;19;19914;-76
2023/03/07 10:24:27;;;;;;;7.22;0.60;;;3.20;99.90;;;;;;7404439;19;20348;-76
2023/03/07 10:27:03;;;;;;;1.90;0.40;;;2.90;99.90;;;;;;7399807;19;19929;-76
2023/03/07 10:29:39;;;;;;;3.45;0.45;;;3.50;99.90;;;;;;7402174;19;20327;-76
2023/03/07 10:32:23;;;;;;;4.00;0.55;;;3.50;99.90;;;;;;7400193;19;20363;-76
2023/03/07 10:35:00;;;;;;;3.42;0.68;;;3.30;99.90;;;;;;7403697;19;19923;-76
2023/03/07 10:37:42;;;;;;;3.53;0.47;;;2.30;99.90;;;;;;7402028;19;19932;-76
2023/03/07 10:40:18;;;;;;;;;;;2.80;99.90;;;;;;7403938;19;19940;-76
2023/03/07 10:42:47;;;;;;;1.02;0.50;;;3.00;99.90;;;;;;7401649;19;19926;-76
2023/03/07 10:45:17;;;;;;;7.72;0.60;;;2.80;99.90;;;;;;7398651;19;19918;-76
2023/03/07 10:47:48;;;;;;;2.33;0.60;;;1.70;99.90;;;;;;7401623;19;19950;-76
2023/03/07 10:50:28;;;;;;;3.63;0.82;;;3.90;99.90;;;;;;7403520;19;19917;-75
2023/03/07 10:53:01;;;;;;;4.40;0.60;;;3.60;99.90;;;;;;7401169;19;19918;-77
2023/03/07 10:55:39;;;;;;;8.90;0.95;;;2.20;99.90;;;;;;7400251;19;19918;-76
2023/03/07 10:58:18;;;;;;;5.15;1.02;;;2.30;99.90;;;;;;7402679;19;19945;-75
2023/03/07 11:00:58;;;;;;;4.22;0.60;;;3.80;99.90;;;;;;7401435;19;19919;-75
2023/03/07 11:03:33;;;;;;;7.00;1.15;;;3.10;99.90;;;;;;7400641;19;19925;-76
2023/03/07 11:06:05;;;;;;;3.22;0.70;;;2.50;99.90;;;;;;7403026;19;19923;-76
2023/03/07 11:08:35;;;;;;;5.50;1.48;;;2.50;99.90;;;;;;7400940;19;20413;-77
2023/03/07 11:11:06;;;;;;;4.32;0.80;;;3.40;99.90;;;;;;7401434;19;19918;-76
2023/03/07 11:13:35;;;;;;;4.78;1.15;;;3.70;99.90;;;;;;7403030;19;19915;-76
2023/03/07 11:16:22;;;;;;;3.80;0.77;;;3.20;99.90;;;;;;7402900;19;19911;-78
2023/03/07 11:18:53;;;;;;;4.68;0.88;;;4.00;99.90;;;;;;7402434;19;19914;-74
2023/03/07 11:21:37;;;;;;;9.73;1.27;;;3.80;99.90;;;;;;7400769;19;19918;-72
2023/03/07 11:24:18;;;;;;;7.75;1.08;;;2.70;99.90;;;;;;7401540;19;19914;-73
2023/03/07 11:26:55;;;;;;;2.08;0.73;;;2.70;99.90;;;;;;7401942;19;19922;-74
2023/03/07 11:29:24;;;;;;;2.28;0.57;;;3.60;99.90;;;;;;7399453;19;19994;-74
2023/03/07 11:32:03;;;;;;;4.95;0.90;;;3.50;99.90;;;;;;7398000;19;19939;-73
2023/03/07 11:34:48;;;;;;;8.13;1.80;;;2.90;99.90;;;;;;7398114;19;19922;-75
2023/03/07 11:37:27;;;;;;;3.30;1.02;;;2.80;99.90;;;;;;7402358;19;19933;-75
2023/03/07 11:40:08;;;;;;;3.83;0.98;;;3.70;99.90;;;;;;7399918;19;19934;-74
2023/03/07 11:42:43;;;;;;;2.58;0.70;;;3.70;99.90;;;;;;7396959;19;19919;-75
2023/03/07 11:45:37;;;;;;;1.67;0.60;;;3.20;99.90;;;;;;7400042;19;19945;-75
2023/03/07 11:48:24;;;;;;;6.65;1.25;;;3.80;99.90;;;;;;7401021;19;19934;-73
2023/03/07 11:50:58;;;;;;;5.13;0.60;;;4.50;99.90;;;;;;7400956;19;20003;-74
2023/03/07 11:53:43;;;;;;;1.15;0.60;;;4.80;99.90;;;;;;7398783;19;19960;-74
2023/03/07 11:56:27;;;;;;;6.18;1.13;;;4.10;99.90;;;;;;7403166;19;19926;-74
2023/03/07 11:59:18;;;;;;;3.75;0.90;;;4.20;99.90;;;;;;7406389;19;19926;-74
2023/03/07 12:01:54;;;;;;;4.85;1.13;;;4.40;99.90;;;;;;7405818;19;20010;-73
2023/03/07 12:05:03;;;;;;;3.22;0.73;;;5.00;99.90;;;;;;7403780;19;20534;-77
2023/03/07 12:08:10;;;;;;;5.40;0.80;;;4.60;99.90;;;;;;7408747;19;19930;-78
2023/03/07 12:10:45;;;;;;;;;;;4.80;99.90;;;;;;7408308;19;19970;-76
2023/03/07 12:13:26;;;;;;;2.00;0.50;;;4.70;99.90;;;;;;7405200;19;19926;-76
2023/03/07 12:16:02;;;;;;;4.13;0.90;;;4.60;99.90;;;;;;7406536;19;19989;-77
2023/03/07 12:19:01;;;;;;;3.75;0.65;;;4.40;99.90;;;;;;7405528;19;20252;-77
2023/03/07 12:22:05;;;;;;;6.68;1.42;;;3.20;99.90;;;;;;7407614;19;19922;-76
2023/03/07 12:24:40;;;;;;;4.88;0.90;;;4.30;99.90;;;;;;7406671;19;19915;-76
2023/03/07 12:27:16;;;;;;;6.10;1.17;;;4.50;99.90;;;;;;7402879;19;19918;-77
2023/03/07 12:29:50;;;;;;;6.18;0.50;;;4.40;99.90;;;;;;7404546;19;20252;-77
2023/03/07 12:32:24;;;;;;;1.27;0.50;;;3.70;99.90;;;;;;7407171;19;20603;-76
2023/03/07 12:34:59;;;;;;;1.98;0.55;;;3.40;99.90;;;;;;7408593;19;19922;-77
2023/03/07 12:37:34;;;;;;;1.48;0.40;;;2.60;99.90;;;;;;7404062;19;19922;-77
2023/03/07 12:40:13;;;;;;;2.80;0.57;;;4.10;99.90;;;;;;7405383;19;19989;-78
2023/03/07 12:42:46;;;;;;;3.88;0.57;;;3.60;99.90;;;;;;7404867;19;20016;-77
2023/03/07 12:45:20;;;;;;;7.18;0.65;;;2.90;99.90;;;;;;7406194;19;20626;-77
2023/03/07 12:47:59;;;;;;;3.97;0.55;;;4.70;99.90;;;;;;7404499;19;19911;-77
2023/03/07 12:50:33;;;;;;;5.10;1.27;;;4.40;99.90;;;;;;7406760;19;20294;-77
2023/03/07 12:53:07;;;;;;;2.00;0.38;;;3.30;99.90;;;;;;7403764;19;19919;-78
2023/03/07 12:55:44;;;;;;;1.75;0.55;;;4.50;99.90;;;;;;7403493;19;20086;-77
2023/03/07 12:58:21;;;;;;;2.03;0.50;;;3.80;99.90;;;;;;7404183;19;20305;-77
2023/03/07 13:00:56;;;;;;;4.00;1.05;;;4.00;99.90;;;;;;7403726;19;20271;-77
2023/03/07 13:03:36;;;;;;;2.20;0.43;;;4.60;99.90;;;;;;7404269;19;20298;-77
2023/03/07 13:06:05;;;;;;;2.58;0.60;;;5.10;99.90;;;;;;7406327;19;19919;-78
2023/03/07 13:08:35;;;;;;;2.67;0.70;;;4.40;99.90;;;;;;7401771;19;19966;-78
2023/03/07 13:11:12;;;;;;;3.75;0.50;;;4.60;99.90;;;;;;7408152;19;19935;-77
2023/03/07 13:13:58;;;;;;;3.10;0.73;;;5.30;99.90;;;;;;7403552;19;19918;-77
2023/03/07 13:16:36;;;;;;;4.07;0.60;;;5.10;99.90;;;;;;7406882;19;19953;-78
2023/03/07 13:19:35;;;;;;;2.85;0.82;;;6.40;99.90;;;;;;7404206;19;19921;-77
2023/03/07 13:22:05;;;;;;;4.30;0.77;;;5.50;99.90;;;;;;7405638;19;19982;-78
2023/03/07 13:24:36;;;;;;;4.60;0.50;;;5.60;99.90;;;;;;7403030;19;19915;-78
2023/03/07 13:27:17;;;;;;;3.00;0.60;;;5.80;99.90;;;;;;7403031;19;19918;-78
2023/03/07 13:30:05;;;;;;;3.50;0.65;;;7.10;99.90;;;;;;7405908;19;19918;-77
2023/03/07 13:32:59;;;;;;;2.80;0.82;;;5.70;99.90;;;;;;7403237;19;19938;-78